sensor_id;sensor_type;location;lat;lon;timestamp;temperature;humidity
1055;DHT22;516;51.482;7.120;2024-02-28T00:01:37;24.20;1.00
1055;DHT22;516;51.482;7.120;2024-02-28T00:04:03;24.20;1.00
1055;DHT22;516;51.482;7.120;2024-02-28T00:06:29;24.20;1.00
1055;DHT22;516;51.482;7.120;2024-02-28T00:08:54;24.20;1.00
1055;DHT22;516;51.482;7.120;2024-02-28T00:11:20;24.10;1.00
1055;DHT22;516;51.482;7.120;2024-02-28T00:13:46;24.10;1.00
1055;DHT22;516;51.482;7.120;2024-02-28T00:16:12;24.10;1.00
1055;DHT22;516;51.482;7.120;2024-02-28T00:18:38;24.00;1.00
1055;DHT22;516;51.482;7.120;2024-02-28T00:21:03;24.00;1.00
1055;DHT22;516;51.482;7.120;2024-02-28T00:23:29;24.00;1.00
1055;DHT22;516;51.482;7.120;2024-02-28T00:25:55;24.00;1.00
1055;DHT22;516;51.482;7.120;2024-02-28T00:28:21;24.00;1.00
1055;DHT22;516;51.482;7.120;2024-02-28T00:30:47;24.00;1.00
1055;DHT22;516;51.482;7.120;2024-02-28T00:33:12;23.90;1.00
1055;DHT22;516;51.482;7.120;2024-02-28T00:35:39;23.90;1.00
1055;DHT22;516;51.482;7.120;2024-02-28T00:38:05;23.90;1.00
1055;DHT22;516;51.482;7.120;2024-02-28T00:40:31;23.90;1.00
1055;DHT22;516;51.482;7.120;2024-02-28T00:42:57;23.90;1.00
1055;DHT22;516;51.482;7.120;2024-02-28T00:45:23;23.90;1.00
1055;DHT22;516;51.482;7.120;2024-02-28T00:47:49;23.80;1.00
1055;DHT22;516;51.482;7.120;2024-02-28T00:50:14;23.80;1.00
1055;DHT22;516;51.482;7.120;2024-02-28T00:52:40;23.80;1.00
1055;DHT22;516;51.482;7.120;2024-02-28T00:55:06;23.80;1.00
1055;DHT22;516;51.482;7.120;2024-02-28T00:57:32;23.80;1.00
1055;DHT22;516;51.482;7.120;2024-02-28T00:59:59;23.70;1.00
1055;DHT22;516;51.482;7.120;2024-02-28T01:02:24;23.80;1.00
1055;DHT22;516;51.482;7.120;2024-02-28T01:04:50;23.70;1.00
1055;DHT22;516;51.482;7.120;2024-02-28T01:07:16;23.70;1.00
1055;DHT22;516;51.482;7.120;2024-02-28T01:09:42;23.70;1.00
1055;DHT22;516;51.482;7.120;2024-02-28T01:12:08;23.70;1.00
1055;DHT22;516;51.482;7.120;2024-02-28T01:14:33;23.60;1.00
1055;DHT22;516;51.482;7.120;2024-02-28T01:16:59;23.60;1.00
1055;DHT22;516;51.482;7.120;2024-02-28T01:19:25;23.60;1.00
1055;DHT22;516;51.482;7.120;2024-02-28T01:21:50;23.60;1.00
1055;DHT22;516;51.482;7.120;2024-02-28T01:24:16;23.60;1.00
1055;DHT22;516;51.482;7.120;2024-02-28T01:26:41;23.60;1.00
1055;DHT22;516;51.482;7.120;2024-02-28T01:29:07;23.60;1.00
1055;DHT22;516;51.482;7.120;2024-02-28T01:31:33;23.50;1.00
1055;DHT22;516;51.482;7.120;2024-02-28T01:33:58;23.50;1.00
1055;DHT22;516;51.482;7.120;2024-02-28T01:36:24;23.50;1.00
1055;DHT22;516;51.482;7.120;2024-02-28T01:38:51;23.50;1.00
1055;DHT22;516;51.482;7.120;2024-02-28T01:41:17;23.50;1.00
1055;DHT22;516;51.482;7.120;2024-02-28T01:43:42;23.50;1.00
1055;DHT22;516;51.482;7.120;2024-02-28T01:46:27;23.40;1.00
1055;DHT22;516;51.482;7.120;2024-02-28T01:48:54;23.40;1.00
1055;DHT22;516;51.482;7.120;2024-02-28T01:51:22;23.40;1.00
1055;DHT22;516;51.482;7.120;2024-02-28T01:53:48;23.40;1.00
1055;DHT22;516;51.482;7.120;2024-02-28T01:56:16;23.40;1.00
1055;DHT22;516;51.482;7.120;2024-02-28T01:58:44;23.40;1.00
1055;DHT22;516;51.482;7.120;2024-02-28T02:01:12;23.40;1.00
1055;DHT22;516;51.482;7.120;2024-02-28T02:03:39;23.30;1.00
1055;DHT22;516;51.482;7.120;2024-02-28T02:06:05;23.30;1.00
1055;DHT22;516;51.482;7.120;2024-02-28T02:08:31;23.30;1.00
1055;DHT22;516;51.482;7.120;2024-02-28T02:10:58;23.30;1.00
1055;DHT22;516;51.482;7.120;2024-02-28T02:13:23;23.30;1.00
1055;DHT22;516;51.482;7.120;2024-02-28T02:15:49;23.20;1.00
1055;DHT22;516;51.482;7.120;2024-02-28T02:18:14;23.20;1.00
1055;DHT22;516;51.482;7.120;2024-02-28T02:20:44;23.20;1.00
1055;DHT22;516;51.482;7.120;2024-02-28T02:23:12;23.20;1.00
1055;DHT22;516;51.482;7.120;2024-02-28T02:25:48;23.20;1.00
1055;DHT22;516;51.482;7.120;2024-02-28T02:28:15;23.20;1.00
1055;DHT22;516;51.482;7.120;2024-02-28T02:30:41;23.10;1.00
1055;DHT22;516;51.482;7.120;2024-02-28T02:33:08;23.10;1.00
1055;DHT22;516;51.482;7.120;2024-02-28T02:35:34;23.20;1.00
1055;DHT22;516;51.482;7.120;2024-02-28T02:38:00;23.20;1.00
1055;DHT22;516;51.482;7.120;2024-02-28T02:40:26;23.10;1.00
1055;DHT22;516;51.482;7.120;2024-02-28T02:42:51;23.10;1.00
1055;DHT22;516;51.482;7.120;2024-02-28T02:45:17;23.10;1.00
1055;DHT22;516;51.482;7.120;2024-02-28T02:47:43;23.10;1.00
1055;DHT22;516;51.482;7.120;2024-02-28T02:50:12;23.10;1.00
1055;DHT22;516;51.482;7.120;2024-02-28T02:52:38;23.10;1.00
1055;DHT22;516;51.482;7.120;2024-02-28T02:55:04;23.10;1.00
1055;DHT22;516;51.482;7.120;2024-02-28T02:57:31;23.00;1.00
1055;DHT22;516;51.482;7.120;2024-02-28T02:59:57;23.00;1.00
1055;DHT22;516;51.482;7.120;2024-02-28T03:02:23;23.00;1.00
1055;DHT22;516;51.482;7.120;2024-02-28T03:04:48;23.00;1.00
1055;DHT22;516;51.482;7.120;2024-02-28T03:07:14;23.00;1.00
1055;DHT22;516;51.482;7.120;2024-02-28T03:09:40;23.00;1.00
1055;DHT22;516;51.482;7.120;2024-02-28T03:12:06;23.00;1.00
1055;DHT22;516;51.482;7.120;2024-02-28T03:14:32;23.00;1.00
1055;DHT22;516;51.482;7.120;2024-02-28T03:16:58;23.00;1.00
1055;DHT22;516;51.482;7.120;2024-02-28T03:19:24;23.00;1.00
1055;DHT22;516;51.482;7.120;2024-02-28T03:21:49;22.90;1.00
1055;DHT22;516;51.482;7.120;2024-02-28T03:24:15;22.90;1.00
1055;DHT22;516;51.482;7.120;2024-02-28T03:26:41;22.90;1.00
1055;DHT22;516;51.482;7.120;2024-02-28T03:29:07;22.90;1.00
1055;DHT22;516;51.482;7.120;2024-02-28T03:31:33;22.90;1.00
1055;DHT22;516;51.482;7.120;2024-02-28T03:33:59;22.80;1.00
1055;DHT22;516;51.482;7.120;2024-02-28T03:36:25;22.80;1.00
1055;DHT22;516;51.482;7.120;2024-02-28T03:38:50;22.90;1.00
1055;DHT22;516;51.482;7.120;2024-02-28T03:41:16;22.90;1.00
1055;DHT22;516;51.482;7.120;2024-02-28T03:43:42;22.80;1.00
1055;DHT22;516;51.482;7.120;2024-02-28T03:46:07;22.80;1.00
1055;DHT22;516;51.482;7.120;2024-02-28T03:48:34;22.80;1.00
1055;DHT22;516;51.482;7.120;2024-02-28T03:51:00;22.80;1.00
1055;DHT22;516;51.482;7.120;2024-02-28T03:53:26;22.80;1.00
1055;DHT22;516;51.482;7.120;2024-02-28T03:55:52;22.80;1.00
1055;DHT22;516;51.482;7.120;2024-02-28T03:58:17;22.80;1.00
1055;DHT22;516;51.482;7.120;2024-02-28T04:00:43;22.80;1.00
1055;DHT22;516;51.482;7.120;2024-02-28T04:03:11;22.70;1.00
1055;DHT22;516;51.482;7.120;2024-02-28T04:05:39;22.80;1.00
1055;DHT22;516;51.482;7.120;2024-02-28T04:08:05;22.70;1.00
1055;DHT22;516;51.482;7.120;2024-02-28T04:10:31;22.80;1.00
1055;DHT22;516;51.482;7.120;2024-02-28T04:12:57;22.70;1.00
1055;DHT22;516;51.482;7.120;2024-02-28T04:15:22;22.70;1.00
1055;DHT22;516;51.482;7.120;2024-02-28T04:17:51;22.70;1.00
1055;DHT22;516;51.482;7.120;2024-02-28T04:20:17;22.70;1.00
1055;DHT22;516;51.482;7.120;2024-02-28T04:22:43;22.70;1.00
1055;DHT22;516;51.482;7.120;2024-02-28T04:25:09;22.60;1.00
1055;DHT22;516;51.482;7.120;2024-02-28T04:27:35;22.60;1.00
1055;DHT22;516;51.482;7.120;2024-02-28T04:30:01;22.70;1.00
1055;DHT22;516;51.482;7.120;2024-02-28T04:32:27;22.60;1.00
1055;DHT22;516;51.482;7.120;2024-02-28T04:34:52;22.60;1.00
1055;DHT22;516;51.482;7.120;2024-02-28T04:37:18;22.60;1.00
1055;DHT22;516;51.482;7.120;2024-02-28T04:39:44;22.60;1.00
1055;DHT22;516;51.482;7.120;2024-02-28T04:42:10;22.60;1.00
1055;DHT22;516;51.482;7.120;2024-02-28T04:44:35;22.60;1.00
1055;DHT22;516;51.482;7.120;2024-02-28T04:47:01;22.60;1.00
1055;DHT22;516;51.482;7.120;2024-02-28T04:49:28;22.60;1.00
1055;DHT22;516;51.482;7.120;2024-02-28T04:51:53;22.60;1.00
1055;DHT22;516;51.482;7.120;2024-02-28T04:54:19;22.60;1.00
1055;DHT22;516;51.482;7.120;2024-02-28T04:56:45;22.50;1.00
1055;DHT22;516;51.482;7.120;2024-02-28T04:59:12;22.50;1.00
1055;DHT22;516;51.482;7.120;2024-02-28T05:01:38;22.60;1.00
1055;DHT22;516;51.482;7.120;2024-02-28T05:04:06;22.50;1.00
1055;DHT22;516;51.482;7.120;2024-02-28T05:06:32;22.50;1.00
1055;DHT22;516;51.482;7.120;2024-02-28T05:08:57;22.60;1.00
1055;DHT22;516;51.482;7.120;2024-02-28T05:11:23;22.60;1.00
1055;DHT22;516;51.482;7.120;2024-02-28T05:13:49;22.60;1.00
1055;DHT22;516;51.482;7.120;2024-02-28T05:16:15;22.50;1.00
1055;DHT22;516;51.482;7.120;2024-02-28T05:18:41;22.60;1.00
1055;DHT22;516;51.482;7.120;2024-02-28T05:21:07;22.60;1.00
1055;DHT22;516;51.482;7.120;2024-02-28T05:23:32;22.60;1.00
1055;DHT22;516;51.482;7.120;2024-02-28T05:25:59;22.60;1.00
1055;DHT22;516;51.482;7.120;2024-02-28T05:28:29;22.60;1.00
1055;DHT22;516;51.482;7.120;2024-02-28T05:30:55;22.60;1.00
1055;DHT22;516;51.482;7.120;2024-02-28T05:33:21;22.60;1.00
1055;DHT22;516;51.482;7.120;2024-02-28T05:35:47;22.70;1.00
1055;DHT22;516;51.482;7.120;2024-02-28T05:38:13;22.70;1.00
1055;DHT22;516;51.482;7.120;2024-02-28T05:40:40;22.60;1.00
1055;DHT22;516;51.482;7.120;2024-02-28T05:43:07;22.70;1.00
1055;DHT22;516;51.482;7.120;2024-02-28T05:45:32;22.70;1.00
1055;DHT22;516;51.482;7.120;2024-02-28T05:47:59;22.60;1.00
1055;DHT22;516;51.482;7.120;2024-02-28T05:50:24;22.60;1.00
1055;DHT22;516;51.482;7.120;2024-02-28T05:52:50;22.60;1.00
1055;DHT22;516;51.482;7.120;2024-02-28T05:55:17;22.60;1.00
1055;DHT22;516;51.482;7.120;2024-02-28T05:57:43;22.60;1.00
1055;DHT22;516;51.482;7.120;2024-02-28T06:00:09;22.60;1.00
1055;DHT22;516;51.482;7.120;2024-02-28T06:02:39;22.60;1.00
1055;DHT22;516;51.482;7.120;2024-02-28T06:05:05;22.60;1.00
1055;DHT22;516;51.482;7.120;2024-02-28T06:07:31;22.60;1.00
1055;DHT22;516;51.482;7.120;2024-02-28T06:09:57;22.60;1.00
1055;DHT22;516;51.482;7.120;2024-02-28T06:12:23;22.70;1.00
1055;DHT22;516;51.482;7.120;2024-02-28T06:14:49;22.60;1.00
1055;DHT22;516;51.482;7.120;2024-02-28T06:17:15;22.60;1.00
1055;DHT22;516;51.482;7.120;2024-02-28T06:19:40;22.70;1.00
1055;DHT22;516;51.482;7.120;2024-02-28T06:22:06;22.60;1.00
1055;DHT22;516;51.482;7.120;2024-02-28T06:24:35;22.60;1.00
1055;DHT22;516;51.482;7.120;2024-02-28T06:27:01;22.70;1.00
1055;DHT22;516;51.482;7.120;2024-02-28T06:29:27;22.70;1.00
1055;DHT22;516;51.482;7.120;2024-02-28T06:31:53;22.70;1.00
1055;DHT22;516;51.482;7.120;2024-02-28T06:34:21;22.80;1.00
1055;DHT22;516;51.482;7.120;2024-02-28T06:36:48;22.80;1.00
1055;DHT22;516;51.482;7.120;2024-02-28T06:39:13;22.80;1.00
1055;DHT22;516;51.482;7.120;2024-02-28T06:41:40;22.70;1.00
1055;DHT22;516;51.482;7.120;2024-02-28T06:44:06;22.70;1.00
1055;DHT22;516;51.482;7.120;2024-02-28T06:46:33;22.80;1.00
1055;DHT22;516;51.482;7.120;2024-02-28T06:48:59;22.70;1.00
1055;DHT22;516;51.482;7.120;2024-02-28T06:51:24;22.70;1.00
1055;DHT22;516;51.482;7.120;2024-02-28T06:53:50;22.70;1.00
1055;DHT22;516;51.482;7.120;2024-02-28T06:56:15;22.70;1.00
1055;DHT22;516;51.482;7.120;2024-02-28T06:58:41;22.70;1.00
1055;DHT22;516;51.482;7.120;2024-02-28T07:01:07;22.70;1.00
1055;DHT22;516;51.482;7.120;2024-02-28T07:03:32;22.70;1.00
1055;DHT22;516;51.482;7.120;2024-02-28T07:05:58;22.70;1.00
1055;DHT22;516;51.482;7.120;2024-02-28T07:08:24;22.80;1.00
1055;DHT22;516;51.482;7.120;2024-02-28T07:10:49;22.80;1.00
1055;DHT22;516;51.482;7.120;2024-02-28T07:13:19;22.80;1.00
1055;DHT22;516;51.482;7.120;2024-02-28T07:15:46;22.80;1.00
1055;DHT22;516;51.482;7.120;2024-02-28T07:18:12;22.80;1.00
1055;DHT22;516;51.482;7.120;2024-02-28T07:20:38;22.80;1.00
1055;DHT22;516;51.482;7.120;2024-02-28T07:23:03;22.80;1.00
1055;DHT22;516;51.482;7.120;2024-02-28T07:25:29;22.90;1.00
1055;DHT22;516;51.482;7.120;2024-02-28T07:27:59;22.80;1.00
1055;DHT22;516;51.482;7.120;2024-02-28T07:30:25;22.80;1.00
1055;DHT22;516;51.482;7.120;2024-02-28T07:32:51;23.20;1.00
1055;DHT22;516;51.482;7.120;2024-02-28T07:35:16;23.50;1.00
1055;DHT22;516;51.482;7.120;2024-02-28T07:37:42;23.30;1.00
1055;DHT22;516;51.482;7.120;2024-02-28T07:40:08;22.60;1.00
1055;DHT22;516;51.482;7.120;2024-02-28T07:42:34;22.30;1.00
1055;DHT22;516;51.482;7.120;2024-02-28T07:45:00;22.60;1.00
1055;DHT22;516;51.482;7.120;2024-02-28T07:47:26;22.90;1.00
1055;DHT22;516;51.482;7.120;2024-02-28T07:49:52;23.20;1.00
1055;DHT22;516;51.482;7.120;2024-02-28T07:52:19;23.50;1.00
1055;DHT22;516;51.482;7.120;2024-02-28T07:54:45;23.70;1.00
1055;DHT22;516;51.482;7.120;2024-02-28T07:57:11;23.70;1.00
1055;DHT22;516;51.482;7.120;2024-02-28T07:59:40;23.80;1.00
1055;DHT22;516;51.482;7.120;2024-02-28T08:02:07;23.90;1.00
1055;DHT22;516;51.482;7.120;2024-02-28T08:04:32;23.90;1.00
1055;DHT22;516;51.482;7.120;2024-02-28T08:06:59;24.10;1.00
1055;DHT22;516;51.482;7.120;2024-02-28T08:09:25;24.30;1.00
1055;DHT22;516;51.482;7.120;2024-02-28T08:11:51;24.20;1.00
1055;DHT22;516;51.482;7.120;2024-02-28T08:14:16;24.10;1.00
1055;DHT22;516;51.482;7.120;2024-02-28T08:16:43;24.00;1.00
1055;DHT22;516;51.482;7.120;2024-02-28T08:19:09;24.00;1.00
1055;DHT22;516;51.482;7.120;2024-02-28T08:21:35;24.10;1.00
1055;DHT22;516;51.482;7.120;2024-02-28T08:24:00;24.20;1.00
1055;DHT22;516;51.482;7.120;2024-02-28T08:26:30;24.30;1.00
1055;DHT22;516;51.482;7.120;2024-02-28T08:28:55;24.20;1.00
1055;DHT22;516;51.482;7.120;2024-02-28T08:31:21;24.00;1.00
1055;DHT22;516;51.482;7.120;2024-02-28T08:33:47;23.90;1.00
1055;DHT22;516;51.482;7.120;2024-02-28T08:36:12;23.90;1.00
1055;DHT22;516;51.482;7.120;2024-02-28T08:38:38;23.80;1.00
1055;DHT22;516;51.482;7.120;2024-02-28T08:41:04;23.90;1.00
1055;DHT22;516;51.482;7.120;2024-02-28T08:43:30;23.90;1.00
1055;DHT22;516;51.482;7.120;2024-02-28T08:45:56;23.90;1.00
1055;DHT22;516;51.482;7.120;2024-02-28T08:48:21;23.90;1.00
1055;DHT22;516;51.482;7.120;2024-02-28T08:50:48;23.90;1.00
1055;DHT22;516;51.482;7.120;2024-02-28T08:53:14;23.90;1.00
1055;DHT22;516;51.482;7.120;2024-02-28T08:55:39;23.90;1.00
1055;DHT22;516;51.482;7.120;2024-02-28T08:58:05;23.90;1.00
1055;DHT22;516;51.482;7.120;2024-02-28T09:00:31;23.90;1.00
1055;DHT22;516;51.482;7.120;2024-02-28T09:02:56;23.90;1.00
1055;DHT22;516;51.482;7.120;2024-02-28T09:05:23;24.10;1.00
1055;DHT22;516;51.482;7.120;2024-02-28T09:07:49;24.10;1.00
1055;DHT22;516;51.482;7.120;2024-02-28T09:10:17;24.20;1.00
1055;DHT22;516;51.482;7.120;2024-02-28T09:12:49;24.20;1.00
1055;DHT22;516;51.482;7.120;2024-02-28T09:15:15;24.20;1.00
1055;DHT22;516;51.482;7.120;2024-02-28T09:17:41;24.20;1.00
1055;DHT22;516;51.482;7.120;2024-02-28T09:20:07;24.20;1.00
1055;DHT22;516;51.482;7.120;2024-02-28T09:22:33;24.20;1.00
1055;DHT22;516;51.482;7.120;2024-02-28T09:25:00;24.20;1.00
1055;DHT22;516;51.482;7.120;2024-02-28T09:27:30;24.30;1.00
1055;DHT22;516;51.482;7.120;2024-02-28T09:29:56;24.30;1.00
1055;DHT22;516;51.482;7.120;2024-02-28T09:32:21;24.20;1.00
1055;DHT22;516;51.482;7.120;2024-02-28T09:34:47;24.30;1.00
1055;DHT22;516;51.482;7.120;2024-02-28T09:37:14;24.20;1.00
1055;DHT22;516;51.482;7.120;2024-02-28T09:39:40;24.20;1.00
1055;DHT22;516;51.482;7.120;2024-02-28T09:42:07;24.20;1.00
1055;DHT22;516;51.482;7.120;2024-02-28T09:44:34;24.20;1.00
1055;DHT22;516;51.482;7.120;2024-02-28T09:47:00;24.20;1.00
1055;DHT22;516;51.482;7.120;2024-02-28T09:49:26;24.20;1.00
1055;DHT22;516;51.482;7.120;2024-02-28T09:51:54;24.20;1.00
1055;DHT22;516;51.482;7.120;2024-02-28T09:54:22;24.20;1.00
1055;DHT22;516;51.482;7.120;2024-02-28T09:56:48;24.20;1.00
1055;DHT22;516;51.482;7.120;2024-02-28T09:59:15;24.10;1.00
1055;DHT22;516;51.482;7.120;2024-02-28T10:01:43;24.00;1.00
1055;DHT22;516;51.482;7.120;2024-02-28T10:04:13;23.90;1.00
1055;DHT22;516;51.482;7.120;2024-02-28T10:06:42;23.90;1.00
1055;DHT22;516;51.482;7.120;2024-02-28T10:09:07;23.90;1.00
1055;DHT22;516;51.482;7.120;2024-02-28T10:11:33;23.80;1.00
1055;DHT22;516;51.482;7.120;2024-02-28T10:14:01;23.80;1.00
1055;DHT22;516;51.482;7.120;2024-02-28T10:16:27;23.80;1.00
1055;DHT22;516;51.482;7.120;2024-02-28T10:18:53;23.80;1.00
1055;DHT22;516;51.482;7.120;2024-02-28T10:21:19;23.70;1.00
1055;DHT22;516;51.482;7.120;2024-02-28T10:23:45;23.80;1.00
1055;DHT22;516;51.482;7.120;2024-02-28T10:26:12;23.70;1.00
1055;DHT22;516;51.482;7.120;2024-02-28T10:28:38;23.70;1.00
1055;DHT22;516;51.482;7.120;2024-02-28T10:31:08;23.70;1.00
1055;DHT22;516;51.482;7.120;2024-02-28T10:33:34;23.90;1.00
1055;DHT22;516;51.482;7.120;2024-02-28T10:36:02;24.00;1.00
1055;DHT22;516;51.482;7.120;2024-02-28T10:38:30;23.90;1.00
1055;DHT22;516;51.482;7.120;2024-02-28T10:40:58;24.00;1.00
1055;DHT22;516;51.482;7.120;2024-02-28T10:43:27;24.10;1.00
1055;DHT22;516;51.482;7.120;2024-02-28T10:45:58;24.30;1.00
1055;DHT22;516;51.482;7.120;2024-02-28T10:48:27;24.30;1.00
1055;DHT22;516;51.482;7.120;2024-02-28T10:50:54;24.50;1.00
1055;DHT22;516;51.482;7.120;2024-02-28T10:53:46;24.40;1.00
1055;DHT22;516;51.482;7.120;2024-02-28T10:56:14;24.40;1.00
1055;DHT22;516;51.482;7.120;2024-02-28T10:58:51;24.40;1.00
1055;DHT22;516;51.482;7.120;2024-02-28T11:01:17;24.60;1.00
1055;DHT22;516;51.482;7.120;2024-02-28T11:03:43;24.70;1.00
1055;DHT22;516;51.482;7.120;2024-02-28T11:06:21;24.80;1.00
1055;DHT22;516;51.482;7.120;2024-02-28T11:08:51;24.90;1.00
1055;DHT22;516;51.482;7.120;2024-02-28T11:11:22;24.90;1.00
1055;DHT22;516;51.482;7.120;2024-02-28T11:13:55;24.90;1.00
1055;DHT22;516;51.482;7.120;2024-02-28T11:16:32;24.40;1.00
1055;DHT22;516;51.482;7.120;2024-02-28T11:18:58;24.00;1.00
1055;DHT22;516;51.482;7.120;2024-02-28T11:21:26;23.80;1.00
1055;DHT22;516;51.482;7.120;2024-02-28T11:23:52;23.70;1.00
1055;DHT22;516;51.482;7.120;2024-02-28T11:26:18;23.60;1.00
1055;DHT22;516;51.482;7.120;2024-02-28T11:28:44;23.70;1.00
1055;DHT22;516;51.482;7.120;2024-02-28T11:31:10;23.90;1.00
1055;DHT22;516;51.482;7.120;2024-02-28T11:33:36;24.10;1.00
1055;DHT22;516;51.482;7.120;2024-02-28T11:36:02;24.20;1.00
1055;DHT22;516;51.482;7.120;2024-02-28T11:38:28;24.30;1.00
1055;DHT22;516;51.482;7.120;2024-02-28T11:40:55;24.30;1.00
1055;DHT22;516;51.482;7.120;2024-02-28T11:43:21;24.30;1.00
1055;DHT22;516;51.482;7.120;2024-02-28T11:45:47;24.40;1.00
1055;DHT22;516;51.482;7.120;2024-02-28T11:48:16;24.50;1.00
1055;DHT22;516;51.482;7.120;2024-02-28T11:50:42;24.50;1.00
1055;DHT22;516;51.482;7.120;2024-02-28T11:53:08;24.60;1.00
1055;DHT22;516;51.482;7.120;2024-02-28T11:55:34;24.80;1.00
1055;DHT22;516;51.482;7.120;2024-02-28T11:58:01;24.80;1.00
1055;DHT22;516;51.482;7.120;2024-02-28T12:00:27;24.80;1.00
1055;DHT22;516;51.482;7.120;2024-02-28T12:02:52;24.70;1.00
1055;DHT22;516;51.482;7.120;2024-02-28T12:05:29;24.80;1.00
1055;DHT22;516;51.482;7.120;2024-02-28T12:07:55;24.70;1.00
1055;DHT22;516;51.482;7.120;2024-02-28T12:10:22;24.50;1.00
1055;DHT22;516;51.482;7.120;2024-02-28T12:12:48;24.50;1.00
1055;DHT22;516;51.482;7.120;2024-02-28T12:15:15;24.40;1.00
1055;DHT22;516;51.482;7.120;2024-02-28T12:17:42;24.40;1.00
1055;DHT22;516;51.482;7.120;2024-02-28T12:20:08;24.40;1.00
1055;DHT22;516;51.482;7.120;2024-02-28T12:22:34;24.40;1.00
1055;DHT22;516;51.482;7.120;2024-02-28T12:25:00;24.60;1.00
1055;DHT22;516;51.482;7.120;2024-02-28T12:27:30;24.70;1.00
1055;DHT22;516;51.482;7.120;2024-02-28T12:29:56;24.90;1.00
1055;DHT22;516;51.482;7.120;2024-02-28T12:32:22;24.90;1.00
1055;DHT22;516;51.482;7.120;2024-02-28T12:34:48;24.90;1.00
1055;DHT22;516;51.482;7.120;2024-02-28T12:37:13;24.80;1.00
1055;DHT22;516;51.482;7.120;2024-02-28T12:39:39;24.70;1.00
1055;DHT22;516;51.482;7.120;2024-02-28T12:42:07;24.70;1.00
1055;DHT22;516;51.482;7.120;2024-02-28T12:44:33;24.70;1.00
1055;DHT22;516;51.482;7.120;2024-02-28T12:46:58;24.70;1.00
1055;DHT22;516;51.482;7.120;2024-02-28T12:49:24;24.60;1.00
1055;DHT22;516;51.482;7.120;2024-02-28T12:51:50;24.70;1.00
1055;DHT22;516;51.482;7.120;2024-02-28T12:54:16;24.50;1.00
1055;DHT22;516;51.482;7.120;2024-02-28T12:56:43;24.30;1.00
1055;DHT22;516;51.482;7.120;2024-02-28T12:59:09;24.20;1.00
1055;DHT22;516;51.482;7.120;2024-02-28T13:01:35;24.10;1.00
1055;DHT22;516;51.482;7.120;2024-02-28T13:04:01;24.00;1.00
1055;DHT22;516;51.482;7.120;2024-02-28T13:06:27;23.90;1.00
1055;DHT22;516;51.482;7.120;2024-02-28T13:08:54;23.90;1.00
1055;DHT22;516;51.482;7.120;2024-02-28T13:11:20;23.80;1.00
1055;DHT22;516;51.482;7.120;2024-02-28T13:13:50;23.80;1.00
1055;DHT22;516;51.482;7.120;2024-02-28T13:16:19;23.80;1.00
1055;DHT22;516;51.482;7.120;2024-02-28T13:18:45;23.70;1.00
1055;DHT22;516;51.482;7.120;2024-02-28T13:21:12;23.70;1.00
1055;DHT22;516;51.482;7.120;2024-02-28T13:23:38;23.60;1.00
1055;DHT22;516;51.482;7.120;2024-02-28T13:26:07;23.60;1.00
1055;DHT22;516;51.482;7.120;2024-02-28T13:28:36;23.50;1.00
1055;DHT22;516;51.482;7.120;2024-02-28T13:31:02;23.50;1.00
1055;DHT22;516;51.482;7.120;2024-02-28T13:33:29;23.50;1.00
1055;DHT22;516;51.482;7.120;2024-02-28T13:35:55;23.40;1.00
1055;DHT22;516;51.482;7.120;2024-02-28T13:38:21;23.40;1.00
1055;DHT22;516;51.482;7.120;2024-02-28T13:40:47;23.40;1.00
1055;DHT22;516;51.482;7.120;2024-02-28T13:43:13;23.30;1.00
1055;DHT22;516;51.482;7.120;2024-02-28T13:45:40;23.30;1.00
1055;DHT22;516;51.482;7.120;2024-02-28T13:48:29;23.30;1.00
1055;DHT22;516;51.482;7.120;2024-02-28T13:50:56;23.30;1.00
1055;DHT22;516;51.482;7.120;2024-02-28T13:53:23;23.20;1.00
1055;DHT22;516;51.482;7.120;2024-02-28T13:55:50;23.20;1.00
1055;DHT22;516;51.482;7.120;2024-02-28T13:58:16;23.20;1.00
1055;DHT22;516;51.482;7.120;2024-02-28T14:00:45;23.20;1.00
1055;DHT22;516;51.482;7.120;2024-02-28T14:03:12;23.20;1.00
1055;DHT22;516;51.482;7.120;2024-02-28T14:05:38;23.20;1.00
1055;DHT22;516;51.482;7.120;2024-02-28T14:08:04;23.20;1.00
1055;DHT22;516;51.482;7.120;2024-02-28T14:10:32;23.20;1.00
1055;DHT22;516;51.482;7.120;2024-02-28T14:12:58;23.10;1.00
1055;DHT22;516;51.482;7.120;2024-02-28T14:15:24;23.10;1.00
1055;DHT22;516;51.482;7.120;2024-02-28T14:17:51;23.00;1.00
1055;DHT22;516;51.482;7.120;2024-02-28T14:20:19;23.00;1.00
1055;DHT22;516;51.482;7.120;2024-02-28T14:22:45;22.90;1.00
1055;DHT22;516;51.482;7.120;2024-02-28T14:25:15;22.90;1.00
1055;DHT22;516;51.482;7.120;2024-02-28T14:27:43;22.90;1.00
1055;DHT22;516;51.482;7.120;2024-02-28T14:30:10;22.90;1.00
1055;DHT22;516;51.482;7.120;2024-02-28T14:32:36;22.90;1.00
1055;DHT22;516;51.482;7.120;2024-02-28T14:35:09;22.90;1.00
1055;DHT22;516;51.482;7.120;2024-02-28T14:37:36;22.90;1.00
1055;DHT22;516;51.482;7.120;2024-02-28T14:40:02;22.90;1.00
1055;DHT22;516;51.482;7.120;2024-02-28T14:42:44;22.90;1.00
1055;DHT22;516;51.482;7.120;2024-02-28T14:45:12;23.40;1.00
1055;DHT22;516;51.482;7.120;2024-02-28T14:47:40;23.50;1.00
1055;DHT22;516;51.482;7.120;2024-02-28T14:50:07;23.40;1.00
1055;DHT22;516;51.482;7.120;2024-02-28T14:52:40;23.40;1.00
1055;DHT22;516;51.482;7.120;2024-02-28T14:55:07;23.80;1.00
1055;DHT22;516;51.482;7.120;2024-02-28T14:57:34;23.90;1.00
1055;DHT22;516;51.482;7.120;2024-02-28T15:00:00;24.00;1.00
1055;DHT22;516;51.482;7.120;2024-02-28T15:02:26;24.00;1.00
1055;DHT22;516;51.482;7.120;2024-02-28T15:04:52;24.10;1.00
1055;DHT22;516;51.482;7.120;2024-02-28T15:07:18;24.10;1.00
1055;DHT22;516;51.482;7.120;2024-02-28T15:09:44;24.20;1.00
1055;DHT22;516;51.482;7.120;2024-02-28T15:12:09;23.90;1.00
1055;DHT22;516;51.482;7.120;2024-02-28T15:14:35;24.00;1.00
1055;DHT22;516;51.482;7.120;2024-02-28T15:17:02;24.10;1.00
1055;DHT22;516;51.482;7.120;2024-02-28T15:19:28;24.20;1.00
1055;DHT22;516;51.482;7.120;2024-02-28T15:21:54;23.90;1.00
1055;DHT22;516;51.482;7.120;2024-02-28T15:24:21;23.50;1.00
1055;DHT22;516;51.482;7.120;2024-02-28T15:26:47;23.50;1.00
1055;DHT22;516;51.482;7.120;2024-02-28T15:29:14;23.50;1.00
1055;DHT22;516;51.482;7.120;2024-02-28T15:31:40;23.70;1.00
1055;DHT22;516;51.482;7.120;2024-02-28T15:34:05;23.80;1.00
1055;DHT22;516;51.482;7.120;2024-02-28T15:36:31;23.90;1.00
1055;DHT22;516;51.482;7.120;2024-02-28T15:38:57;23.80;1.00
1055;DHT22;516;51.482;7.120;2024-02-28T15:41:23;23.80;1.00
1055;DHT22;516;51.482;7.120;2024-02-28T15:43:49;23.70;1.00
1055;DHT22;516;51.482;7.120;2024-02-28T15:46:15;23.60;1.00
1055;DHT22;516;51.482;7.120;2024-02-28T15:48:44;23.50;1.00
1055;DHT22;516;51.482;7.120;2024-02-28T15:51:10;23.50;1.00
1055;DHT22;516;51.482;7.120;2024-02-28T15:53:36;23.50;1.00
1055;DHT22;516;51.482;7.120;2024-02-28T15:56:03;23.60;1.00
1055;DHT22;516;51.482;7.120;2024-02-28T15:58:32;23.50;1.00
1055;DHT22;516;51.482;7.120;2024-02-28T16:00:58;23.60;1.00
1055;DHT22;516;51.482;7.120;2024-02-28T16:03:24;23.60;1.00
1055;DHT22;516;51.482;7.120;2024-02-28T16:05:50;23.70;1.00
1055;DHT22;516;51.482;7.120;2024-02-28T16:08:16;23.60;1.00
1055;DHT22;516;51.482;7.120;2024-02-28T16:10:44;23.40;1.00
1055;DHT22;516;51.482;7.120;2024-02-28T16:13:10;23.20;1.00
1055;DHT22;516;51.482;7.120;2024-02-28T16:15:37;23.30;1.00
1055;DHT22;516;51.482;7.120;2024-02-28T16:18:03;23.10;1.00
1055;DHT22;516;51.482;7.120;2024-02-28T16:20:29;23.10;1.00
1055;DHT22;516;51.482;7.120;2024-02-28T16:22:55;23.10;1.00
1055;DHT22;516;51.482;7.120;2024-02-28T16:25:20;23.00;1.00
1055;DHT22;516;51.482;7.120;2024-02-28T16:27:50;23.00;1.00
1055;DHT22;516;51.482;7.120;2024-02-28T16:30:16;23.00;1.00